createdAt,value
2023-01-07T00:00:43.420Z,101405.59
2023-01-07T00:05:46.103Z,101469.03
2023-01-07T00:10:48.177Z,101461.72
2023-01-07T00:15:50.340Z,101449.50
2023-01-07T00:20:52.932Z,101466.06
2023-01-07T00:26:07.291Z,101479.56
2023-01-07T00:31:16.847Z,101470.16
2023-01-07T00:36:20.042Z,101463.97
2023-01-07T00:41:22.610Z,101486.75
2023-01-07T00:46:25.076Z,101489.41
2023-01-07T00:51:27.274Z,101459.94
2023-01-07T00:56:30.180Z,101459.94
2023-01-07T01:01:32.381Z,101475.69
2023-01-07T01:06:34.734Z,101467.94
2023-01-07T01:11:36.907Z,101453.91
2023-01-07T01:16:39.189Z,101482.28
2023-01-07T01:21:41.763Z,101497.44
2023-01-07T01:26:43.896Z,101474.34
2023-01-07T01:31:46.140Z,101496.25
2023-01-07T01:36:48.411Z,101477.84
2023-01-07T01:41:50.827Z,101428.06
2023-01-07T01:46:53.219Z,101452.94
2023-01-07T01:52:17.156Z,101448.59
2023-01-07T01:57:21.433Z,101372.88
2023-01-07T02:02:32.903Z,101406.44
2023-01-07T02:07:35.240Z,101472.94
2023-01-07T02:12:52.525Z,101473.75
2023-01-07T02:18:15.820Z,101465.91
2023-01-07T02:23:27.869Z,101431.66
2023-01-07T02:29:05.105Z,101404.66
2023-01-07T02:34:25.476Z,101449.78
2023-01-07T02:39:46.129Z,101447.28
2023-01-07T02:44:59.962Z,101447.47
2023-01-07T02:50:02.107Z,101410.00
2023-01-07T02:55:16.092Z,101412.13
2023-01-07T03:00:55.603Z,101444.78
2023-01-07T03:06:14.495Z,101439.88
2023-01-07T03:11:20.082Z,101424.16
2023-01-07T03:16:34.519Z,101421.63
2023-01-07T03:21:37.772Z,101429.94
2023-01-07T03:26:46.724Z,101415.22
2023-01-07T03:31:58.647Z,101426.28
2023-01-07T03:37:08.366Z,101464.66
2023-01-07T03:42:30.550Z,101450.75
2023-01-07T03:47:32.939Z,101412.50
2023-01-07T03:52:35.066Z,101435.38
2023-01-07T03:57:37.908Z,101451.38
2023-01-07T04:02:40.138Z,101411.44
2023-01-07T04:07:42.496Z,101453.91
2023-01-07T04:12:44.604Z,101416.75
2023-01-07T04:17:46.883Z,101456.25
2023-01-07T04:22:49.044Z,101437.50
2023-01-07T04:27:51.217Z,101473.75
2023-01-07T04:32:53.304Z,101425.00
2023-01-07T04:37:55.431Z,101454.66
2023-01-07T04:42:57.600Z,101450.03
2023-01-07T04:47:59.793Z,101457.03
2023-01-07T04:53:01.916Z,101495.25
2023-01-07T04:58:04.056Z,101452.31
2023-01-07T05:03:06.525Z,101468.19
2023-01-07T05:08:08.689Z,101486.03
2023-01-07T05:13:17.993Z,101479.03
2023-01-07T05:18:20.338Z,101498.13
2023-01-07T05:23:22.488Z,101469.91
2023-01-07T05:28:24.644Z,101493.59
2023-01-07T05:33:26.803Z,101516.19
2023-01-07T05:38:29.180Z,101504.97
2023-01-07T05:43:31.541Z,101515.31
2023-01-07T05:48:33.753Z,101532.50
2023-01-07T05:53:35.976Z,101525.75
2023-01-07T05:58:38.172Z,101519.44
2023-01-07T06:03:41.156Z,101567.56
2023-01-07T06:08:43.326Z,101524.44
2023-01-07T06:13:45.479Z,101522.09
2023-01-07T06:18:47.617Z,101503.00
2023-01-07T06:23:49.875Z,101555.75
2023-01-07T06:28:52.823Z,101497.50
2023-01-07T06:33:55.053Z,101466.38
2023-01-07T06:38:57.244Z,101573.00
2023-01-07T06:43:59.390Z,101558.41
2023-01-07T06:49:01.628Z,101539.19
2023-01-07T06:54:03.877Z,101550.19
2023-01-07T06:59:06.013Z,101556.00
2023-01-07T07:04:08.104Z,101552.34
2023-01-07T07:09:10.171Z,101553.56
2023-01-07T07:14:12.245Z,101554.31
2023-01-07T07:19:14.461Z,101570.97
2023-01-07T07:24:16.599Z,101582.00
2023-01-07T07:29:20.542Z,101572.56
2023-01-07T07:34:23.988Z,101555.19
2023-01-07T07:39:26.070Z,101594.56
2023-01-07T07:44:28.117Z,101567.47
2023-01-07T07:49:30.439Z,101583.16
2023-01-07T07:54:32.624Z,101579.41
2023-01-07T07:59:34.799Z,101588.13
2023-01-07T08:04:36.987Z,101551.13
2023-01-07T08:09:39.456Z,101568.03
2023-01-07T08:14:43.772Z,101583.59
2023-01-07T08:19:46.191Z,101540.16
2023-01-07T08:24:48.324Z,101611.09
2023-01-07T08:29:50.516Z,101589.56
2023-01-07T08:40:19.095Z,101611.94
2023-01-07T08:45:21.220Z,101568.09
2023-01-07T08:50:26.946Z,101603.72
2023-01-07T08:55:29.134Z,101599.13
2023-01-07T09:00:31.434Z,101575.31
2023-01-07T09:05:35.288Z,101563.75
2023-01-07T09:10:37.559Z,101580.72
2023-01-07T09:15:39.808Z,101587.13
2023-01-07T09:20:42.014Z,101587.69
2023-01-07T09:25:44.592Z,101495.97
2023-01-07T09:30:46.997Z,101536.38
2023-01-07T09:35:49.231Z,101499.41
2023-01-07T09:40:52.208Z,101500.34
2023-01-07T09:45:58.027Z,101538.69
2023-01-07T09:51:22.833Z,101538.38
2023-01-07T09:56:28.398Z,101530.94
2023-01-07T10:01:51.791Z,101531.00
2023-01-07T10:07:14.786Z,101518.75
2023-01-07T10:13:01.945Z,101500.25
2023-01-07T10:18:26.914Z,101478.56
2023-01-07T10:23:33.237Z,101491.81
2023-01-07T10:28:44.980Z,101485.22
2023-01-07T10:33:49.279Z,101471.44
2023-01-07T10:39:11.561Z,101446.47
2023-01-07T10:44:45.655Z,101452.16
2023-01-07T10:50:00.720Z,101447.88
2023-01-07T10:55:31.308Z,101415.78
2023-01-07T11:00:33.778Z,101426.72
2023-01-07T11:05:38.409Z,101422.44
2023-01-07T11:10:40.903Z,101413.56
2023-01-07T11:15:49.657Z,101402.56
2023-01-07T11:20:54.079Z,101394.28
2023-01-07T11:26:12.480Z,101402.75
2023-01-07T11:31:14.725Z,101386.56
2023-01-07T11:36:17.357Z,101382.03
2023-01-07T11:41:26.039Z,101348.97
2023-01-07T11:46:31.845Z,101341.19
2023-01-07T11:51:41.278Z,101354.66
2023-01-07T11:56:43.473Z,101324.50
2023-01-07T12:01:59.278Z,101315.75
2023-01-07T12:07:14.343Z,101317.66
2023-01-07T12:12:39.615Z,101292.13
2023-01-07T12:17:47.336Z,101307.56
2023-01-07T12:23:20.654Z,101294.13
2023-01-07T12:29:03.959Z,101288.53
2023-01-07T12:34:16.453Z,101291.06
2023-01-07T12:39:28.744Z,101282.09
2023-01-07T12:44:32.132Z,101277.41
2023-01-07T12:49:47.889Z,101280.03
2023-01-07T12:55:02.121Z,101260.00
2023-01-07T13:00:27.050Z,101272.72
2023-01-07T13:05:39.618Z,101226.53
2023-01-07T13:11:04.546Z,101258.44
2023-01-07T13:16:11.194Z,101210.22
2023-01-07T13:21:16.376Z,101247.31
2023-01-07T13:26:26.462Z,101220.97
2023-01-07T13:31:38.012Z,101256.22
2023-01-07T13:37:10.937Z,101250.69
2023-01-07T13:42:41.674Z,101245.50
2023-01-07T13:47:48.627Z,101222.56
2023-01-07T13:53:26.074Z,101235.13
2023-01-07T13:58:30.986Z,101253.69
2023-01-07T14:03:48.608Z,101247.25
2023-01-07T14:09:14.047Z,101244.31
2023-01-07T14:14:46.121Z,101243.31
2023-01-07T14:19:56.841Z,101204.56
2023-01-07T14:25:33.961Z,101241.03
2023-01-07T14:30:51.020Z,101226.25
2023-01-07T14:36:05.844Z,101218.31
2023-01-07T14:41:09.930Z,101239.22
2023-01-07T14:46:24.321Z,101235.84
2023-01-07T14:51:46.825Z,101240.69
2023-01-07T14:57:14.853Z,101238.09
2023-01-07T15:02:44.837Z,101236.56
2023-01-07T15:08:18.083Z,101234.47
2023-01-07T15:13:40.372Z,101213.91
2023-01-07T15:18:48.271Z,101219.16
2023-01-07T15:24:15.149Z,101245.31
2023-01-07T15:29:22.741Z,101249.47
2023-01-07T15:34:30.098Z,101245.50
2023-01-07T15:39:45.556Z,101246.78
2023-01-07T15:44:55.307Z,101246.81
2023-01-07T15:49:57.435Z,101236.88
2023-01-07T15:55:15.545Z,101243.16
2023-01-07T16:00:19.986Z,101174.72
2023-01-07T16:05:22.336Z,101217.16
2023-01-07T16:10:30.066Z,101146.81
2023-01-07T16:15:35.356Z,101181.75
2023-01-07T16:20:41.352Z,101175.41
2023-01-07T16:25:53.805Z,101204.00
2023-01-07T16:30:57.573Z,101233.31
2023-01-07T16:36:05.093Z,101172.84
2023-01-07T16:41:07.819Z,101174.34
2023-01-07T16:46:22.005Z,101211.81
2023-01-07T16:51:47.029Z,101184.63
2023-01-07T16:56:52.914Z,101192.88
2023-01-07T17:01:57.114Z,101248.97
2023-01-07T17:07:01.750Z,101205.31
2023-01-07T17:12:05.224Z,101245.06
2023-01-07T17:17:31.997Z,101314.50
2023-01-07T17:22:38.735Z,101244.09
2023-01-07T17:27:55.482Z,101202.19
2023-01-07T17:32:59.043Z,101235.56
2023-01-07T17:38:01.288Z,101219.94
2023-01-07T17:43:22.123Z,101190.25
2023-01-07T17:48:24.443Z,101248.97
2023-01-07T17:53:32.131Z,101211.38
2023-01-07T17:58:38.426Z,101232.16
2023-01-07T18:03:41.684Z,101249.91
2023-01-07T18:08:45.262Z,101258.63
2023-01-07T18:13:47.515Z,101259.13
2023-01-07T18:18:50.018Z,101298.56
2023-01-07T18:23:52.404Z,101328.16
2023-01-07T18:28:54.792Z,101234.28
2023-01-07T18:33:56.950Z,101257.88
2023-01-07T18:38:59.179Z,101254.78
2023-01-07T18:44:01.661Z,101252.94
2023-01-07T18:49:03.898Z,101275.38
2023-01-07T18:54:07.493Z,101201.19
2023-01-07T18:59:09.873Z,101265.31
2023-01-07T19:04:12.250Z,101268.59
2023-01-07T19:09:14.512Z,101255.91
2023-01-07T19:14:16.646Z,101259.88
2023-01-07T19:19:18.930Z,101323.81
2023-01-07T19:24:21.677Z,101256.09
2023-01-07T19:29:23.935Z,101273.59
2023-01-07T19:34:26.385Z,101281.03
2023-01-07T19:39:28.783Z,101266.88
2023-01-07T19:44:31.066Z,101351.16
2023-01-07T19:49:36.296Z,101277.69
2023-01-07T19:54:38.580Z,101293.50
2023-01-07T19:59:40.734Z,101274.63
2023-01-07T20:04:43.396Z,101278.38
2023-01-07T20:09:45.686Z,101284.34
2023-01-07T20:14:48.157Z,101297.56
2023-01-07T20:19:53.145Z,101331.97
2023-01-07T20:24:55.432Z,101309.00
2023-01-07T20:29:57.645Z,101286.19
2023-01-07T20:34:59.912Z,101303.34
2023-01-07T20:40:02.263Z,101357.50
2023-01-07T20:45:04.775Z,101322.84
2023-01-07T20:50:08.779Z,101367.47
2023-01-07T20:55:10.995Z,101262.97
2023-01-07T21:00:13.994Z,101295.44
2023-01-07T21:05:20.572Z,101267.34
2023-01-07T21:10:22.915Z,101324.06
2023-01-07T21:15:25.214Z,101291.91
2023-01-07T21:20:27.677Z,101243.81
2023-01-07T21:25:32.375Z,101288.75
2023-01-07T21:30:34.713Z,101302.75
2023-01-07T21:35:41.821Z,101245.88
2023-01-07T21:40:44.579Z,101256.69
2023-01-07T21:45:47.050Z,101277.63
2023-01-07T21:50:49.372Z,101266.69
2023-01-07T21:55:51.615Z,101277.34
2023-01-07T22:00:54.168Z,101296.88
2023-01-07T22:06:01.528Z,101265.56
2023-01-07T22:11:03.741Z,101309.34
2023-01-07T22:16:06.465Z,101291.81
2023-01-07T22:21:08.730Z,101315.38
2023-01-07T22:26:11.130Z,101269.38
2023-01-07T22:31:20.313Z,101312.31
2023-01-07T22:36:28.352Z,101344.63
2023-01-07T22:41:33.543Z,101278.78
2023-01-07T22:46:38.840Z,101301.78
2023-01-07T22:51:47.111Z,101279.59
2023-01-07T22:56:50.351Z,101253.09
2023-01-07T23:01:52.546Z,101255.06
2023-01-07T23:06:54.746Z,101312.72
2023-01-07T23:12:00.934Z,101213.53
2023-01-07T23:17:03.450Z,101279.47
2023-01-07T23:22:05.637Z,101261.22
2023-01-07T23:27:08.022Z,101259.69
2023-01-07T23:32:12.883Z,101195.44
2023-01-07T23:37:15.077Z,101336.78
2023-01-07T23:42:17.217Z,101263.19
2023-01-07T23:47:19.354Z,101221.41
2023-01-07T23:52:21.543Z,101256.91
2023-01-07T23:57:23.721Z,101237.53
